Time;durP1;ratioP1;P1;durP2;ratioP2;P2;SDS_P1;SDS_P2;PMS_P1;PMS_P2;Temp;Humidity;BMP_temperature;BMP_pressure;BME280_temperature;BME280_humidity;BME280_pressure;Samples;Min_cycle;Max_cycle;Signal;HPM_P1;HPM_P2
2021/05/27 00:01:25;;;;;;;5.82;2.67;;;14.30;99.90;;;;;;5030702;28;20025;-76
2021/05/27 00:03:51;;;;;;;4.07;2.22;;;14.20;99.90;;;;;;5024683;28;20037;-76
2021/05/27 00:06:17;;;;;;;3.00;2.35;;;14.20;99.90;;;;;;5030808;28;20034;-76
2021/05/27 00:08:42;;;;;;;2.65;2.13;;;14.20;99.90;;;;;;5028745;28;20036;-76
2021/05/27 00:11:08;;;;;;;3.15;2.40;;;14.20;99.90;;;;;;5028663;28;20025;-76
2021/05/27 00:13:34;;;;;;;3.17;1.92;;;14.10;99.90;;;;;;5027717;28;20026;-75
2021/05/27 00:16:00;;;;;;;3.10;1.92;;;14.10;99.90;;;;;;5030435;28;20033;-77
2021/05/27 00:18:26;;;;;;;6.53;1.80;;;14.00;99.90;;;;;;5031737;28;20021;-76
2021/05/27 00:20:52;;;;;;;3.80;1.95;;;14.10;99.90;;;;;;5033922;28;20017;-75
2021/05/27 00:23:17;;;;;;;3.20;2.28;;;14.00;99.90;;;;;;5028054;28;20086;-75
2021/05/27 00:25:43;;;;;;;12.32;2.15;;;14.10;99.90;;;;;;5018875;28;20034;-76
2021/05/27 00:28:09;;;;;;;7.53;2.70;;;14.10;99.90;;;;;;5032657;28;20024;-77
2021/05/27 00:30:35;;;;;;;5.40;2.13;;;14.10;99.90;;;;;;5033532;28;20100;-76
2021/05/27 00:33:00;;;;;;;5.88;2.15;;;14.00;99.90;;;;;;5033284;28;20044;-76
2021/05/27 00:35:26;;;;;;;7.10;2.28;;;14.00;99.90;;;;;;5032795;28;20118;-77
2021/05/27 00:37:52;;;;;;;5.22;2.45;;;13.90;99.90;;;;;;5031389;28;20018;-75
2021/05/27 00:40:18;;;;;;;4.85;2.10;;;13.90;99.90;;;;;;5033453;28;20025;-75
2021/05/27 00:42:45;;;;;;;10.25;2.63;;;13.90;99.90;;;;;;5030003;28;20450;-76
2021/05/27 00:45:14;;;;;;;4.57;2.20;;;13.90;99.90;;;;;;5030687;28;20116;-76
2021/05/27 00:47:41;;;;;;;6.30;2.33;;;13.90;99.90;;;;;;5028851;28;20022;-76
2021/05/27 00:50:12;;;;;;;3.28;1.83;;;13.90;99.90;;;;;;5033103;28;20041;-77
2021/05/27 00:52:39;;;;;;;4.75;1.63;;;13.80;99.90;;;;;;5018330;28;20049;-75
2021/05/27 00:55:06;;;;;;;4.85;2.58;;;13.90;99.90;;;;;;5023617;28;20042;-76
2021/05/27 00:57:35;;;;;;;2.85;1.77;;;13.90;99.90;;;;;;5032011;28;20029;-76
2021/05/27 01:00:06;;;;;;;5.10;2.13;;;13.80;99.90;;;;;;5032981;28;20109;-76
2021/05/27 01:02:32;;;;;;;8.02;2.20;;;13.80;99.90;;;;;;5031159;28;20075;-74
2021/05/27 01:04:58;;;;;;;10.60;2.00;;;13.70;99.90;;;;;;5033989;28;20487;-76
2021/05/27 01:07:24;;;;;;;5.32;1.95;;;13.70;99.90;;;;;;5033097;28;20442;-75
2021/05/27 01:09:50;;;;;;;3.53;2.30;;;13.60;99.90;;;;;;5034413;28;20017;-76
2021/05/27 01:12:15;;;;;;;3.65;2.10;;;13.60;99.90;;;;;;5030700;28;20033;-75
2021/05/27 01:17:25;;;;;;;3.42;1.90;;;13.60;99.90;;;;;;5031917;28;20028;-76
2021/05/27 01:19:53;;;;;;;2.95;1.92;;;13.60;99.90;;;;;;5032611;28;20029;-76
2021/05/27 01:22:22;;;;;;;5.35;2.15;;;13.60;99.90;;;;;;5032256;28;20045;-76
2021/05/27 01:24:49;;;;;;;9.23;2.70;;;13.70;99.90;;;;;;5030764;28;20029;-76
2021/05/27 01:27:15;;;;;;;4.03;2.25;;;13.80;99.90;;;;;;5032449;28;20033;-75
2021/05/27 01:29:41;;;;;;;4.32;2.10;;;13.80;99.90;;;;;;5031893;28;20018;-75
2021/05/27 01:32:10;;;;;;;3.47;2.22;;;13.80;99.90;;;;;;5030876;28;20033;-75
2021/05/27 01:34:36;;;;;;;6.90;1.80;;;13.80;99.90;;;;;;5034594;28;20032;-74
2021/05/27 01:37:04;;;;;;;6.43;2.20;;;13.80;99.90;;;;;;5036014;28;20117;-76
2021/05/27 01:39:30;;;;;;;3.28;2.08;;;13.90;99.90;;;;;;5021294;28;20399;-75
2021/05/27 01:41:56;;;;;;;3.63;2.08;;;13.80;99.90;;;;;;5034140;28;20437;-77
2021/05/27 01:44:21;;;;;;;4.18;2.22;;;13.70;99.90;;;;;;5037808;28;20115;-76
2021/05/27 01:46:47;;;;;;;5.18;3.30;;;13.60;99.90;;;;;;5040474;28;20363;-75
2021/05/27 01:49:13;;;;;;;5.93;2.30;;;13.50;99.90;;;;;;5036544;28;20070;-75
2021/05/27 01:51:38;;;;;;;4.55;1.52;;;13.50;99.90;;;;;;5038790;28;20384;-75
2021/05/27 01:54:04;;;;;;;3.03;2.05;;;13.50;99.90;;;;;;5036003;28;20483;-75
2021/05/27 01:56:30;;;;;;;7.15;2.95;;;13.50;99.90;;;;;;5036456;28;20021;-75
2021/05/27 01:59:04;;;;;;;2.58;1.80;;;13.50;99.90;;;;;;5041524;28;20044;-75
2021/05/27 02:01:30;;;;;;;3.55;2.10;;;13.50;99.90;;;;;;5037956;28;20021;-75
2021/05/27 02:03:55;;;;;;;2.13;1.67;;;13.50;99.90;;;;;;5043275;28;20040;-75
2021/05/27 02:06:21;;;;;;;2.92;1.98;;;13.50;99.90;;;;;;5037250;28;20035;-75
2021/05/27 02:11:32;;;;;;;4.90;1.85;;;13.50;99.90;;;;;;5045889;28;20088;-76
2021/05/27 02:13:58;;;;;;;5.40;2.55;;;13.50;99.90;;;;;;5037733;28;20052;-76
2021/05/27 02:16:24;;;;;;;1.83;1.45;;;13.50;99.90;;;;;;5035881;28;20025;-75
2021/05/27 02:18:49;;;;;;;7.50;2.15;;;13.50;99.90;;;;;;5035730;28;20018;-75
2021/05/27 02:21:15;;;;;;;5.05;1.77;;;13.50;99.90;;;;;;5042780;28;20025;-75
2021/05/27 02:23:41;;;;;;;3.20;1.70;;;13.50;99.90;;;;;;5037201;28;20084;-76
2021/05/27 02:26:07;;;;;;;2.50;1.48;;;13.40;99.90;;;;;;5033889;28;20029;-76
2021/05/27 02:28:32;;;;;;;5.25;1.77;;;13.40;99.90;;;;;;5037072;28;20032;-76
2021/05/27 02:30:58;;;;;;;9.52;2.10;;;13.40;99.90;;;;;;5037458;28;20033;-76
2021/05/27 02:33:24;;;;;;;5.15;2.00;;;13.40;99.90;;;;;;5012891;28;20429;-76
2021/05/27 02:35:50;;;;;;;6.45;2.05;;;13.40;99.90;;;;;;5031494;28;20032;-76
2021/05/27 02:38:15;;;;;;;7.70;2.42;;;13.40;99.90;;;;;;5026492;28;20117;-76
2021/05/27 02:40:41;;;;;;;5.93;1.58;;;13.30;99.90;;;;;;5031031;28;20091;-76
2021/05/27 02:43:08;;;;;;;6.40;4.25;;;13.40;99.90;;;;;;5030421;28;20049;-75
2021/05/27 02:45:34;;;;;;;3.47;2.45;;;13.30;99.90;;;;;;5030181;28;20025;-75
2021/05/27 02:47:59;;;;;;;3.67;1.67;;;13.30;99.90;;;;;;5030568;28;20061;-76
2021/05/27 02:50:25;;;;;;;7.85;1.98;;;13.30;99.90;;;;;;5030035;28;20087;-76
2021/05/27 02:52:51;;;;;;;8.07;2.47;;;13.30;99.90;;;;;;5027075;28;20061;-76
2021/05/27 02:55:17;;;;;;;5.40;2.05;;;13.30;99.90;;;;;;5029006;28;20022;-76
2021/05/27 02:57:42;;;;;;;6.10;1.83;;;13.30;99.90;;;;;;5028647;28;20029;-75
2021/05/27 03:00:08;;;;;;;5.97;2.05;;;13.30;99.90;;;;;;5028316;28;20022;-76
2021/05/27 03:02:34;;;;;;;13.38;2.50;;;13.30;99.90;;;;;;5025634;28;20480;-76
2021/05/27 03:05:02;;;;;;;4.32;1.67;;;13.30;99.90;;;;;;5029732;28;20078;-74
2021/05/27 03:07:28;;;;;;;8.52;2.50;;;13.30;99.90;;;;;;5031215;28;20533;-76
2021/05/27 03:09:53;;;;;;;2.92;1.90;;;13.40;99.90;;;;;;5025934;28;20037;-75
2021/05/27 03:12:19;;;;;;;2.60;2.35;;;13.40;99.90;;;;;;5029013;28;20395;-75
2021/05/27 03:14:45;;;;;;;7.40;1.73;;;13.50;99.90;;;;;;5025675;28;20026;-76
2021/05/27 03:17:11;;;;;;;5.72;2.95;;;13.50;99.90;;;;;;5030712;28;20036;-75
2021/05/27 03:19:36;;;;;;;2.97;2.00;;;13.50;99.90;;;;;;5027362;28;20024;-76
2021/05/27 03:22:02;;;;;;;4.25;2.70;;;13.50;99.90;;;;;;5029486;28;20133;-74
2021/05/27 03:24:28;;;;;;;15.00;2.03;;;13.50;99.90;;;;;;5030148;28;20143;-75
2021/05/27 03:26:54;;;;;;;3.95;2.40;;;13.50;99.90;;;;;;5029227;28;20022;-75
2021/05/27 03:29:20;;;;;;;2.95;2.00;;;13.40;99.90;;;;;;5029841;28;20103;-76
2021/05/27 03:31:46;;;;;;;5.88;2.47;;;13.40;99.90;;;;;;5030184;28;20608;-75
2021/05/27 03:34:11;;;;;;;3.42;2.30;;;13.40;99.90;;;;;;5028101;28;20108;-76
2021/05/27 03:36:38;;;;;;;6.22;3.25;;;13.30;99.90;;;;;;5027990;28;20067;-76
2021/05/27 03:39:05;;;;;;;3.83;2.08;;;13.30;99.90;;;;;;5029486;28;20018;-76
2021/05/27 03:41:31;;;;;;;6.90;2.63;;;13.40;99.90;;;;;;5029736;28;20031;-77
2021/05/27 03:43:56;;;;;;;6.28;2.60;;;13.40;99.90;;;;;;5031543;28;20108;-76
2021/05/27 03:46:22;;;;;;;7.50;2.40;;;13.40;99.90;;;;;;5028935;28;20029;-77
2021/05/27 03:48:48;;;;;;;4.35;2.10;;;13.40;99.90;;;;;;5028607;28;20158;-75
2021/05/27 03:51:14;;;;;;;6.43;2.58;;;13.50;99.90;;;;;;5031979;28;20473;-74
2021/05/27 03:53:40;;;;;;;7.25;2.33;;;13.50;99.90;;;;;;5034236;28;20040;-76
2021/05/27 03:56:06;;;;;;;4.32;2.58;;;13.50;99.90;;;;;;5030905;28;20113;-75
2021/05/27 04:01:16;;;;;;;4.80;2.13;;;13.60;99.90;;;;;;5031343;28;20113;-76
2021/05/27 04:09:14;;;;;;;6.28;2.70;;;13.70;99.90;;;;;;5030920;28;20474;-76
2021/05/27 04:11:40;;;;;;;8.75;2.20;;;13.80;99.90;;;;;;5034744;28;20064;-76
2021/05/27 04:14:06;;;;;;;6.10;2.28;;;13.80;99.90;;;;;;5032729;28;20117;-78
2021/05/27 04:16:31;;;;;;;3.72;2.03;;;13.80;99.90;;;;;;5032269;28;20320;-76
2021/05/27 04:18:57;;;;;;;4.35;1.58;;;13.90;99.90;;;;;;5033152;28;20086;-76
2021/05/27 04:21:23;;;;;;;4.57;2.92;;;14.00;99.90;;;;;;5021981;28;20040;-77
2021/05/27 04:23:49;;;;;;;5.30;2.95;;;14.10;99.90;;;;;;5026573;28;20030;-75
2021/05/27 04:26:16;;;;;;;3.33;1.70;;;14.10;99.90;;;;;;5027565;28;20413;-75
2021/05/27 04:28:44;;;;;;;9.02;2.75;;;14.10;99.90;;;;;;5017203;28;20025;-75
2021/05/27 04:31:13;;;;;;;4.05;2.33;;;14.10;99.90;;;;;;5032643;28;20022;-75
2021/05/27 04:33:51;;;;;;;2.85;2.03;;;14.10;99.90;;;;;;5034329;28;20057;-74
2021/05/27 04:36:18;;;;;;;6.38;2.50;;;14.20;99.90;;;;;;5029348;28;20098;-77
2021/05/27 04:38:45;;;;;;;10.27;2.80;;;14.20;99.90;;;;;;5041266;28;20037;-76
2021/05/27 04:41:10;;;;;;;7.55;2.65;;;14.30;99.90;;;;;;5048175;28;20017;-76
2021/05/27 04:43:38;;;;;;;9.00;2.25;;;14.30;99.90;;;;;;5046472;28;20032;-77
2021/05/27 04:46:04;;;;;;;5.65;2.70;;;14.40;99.90;;;;;;5047429;28;20029;-76
2021/05/27 04:48:31;;;;;;;7.32;2.28;;;14.60;99.90;;;;;;5022730;28;20036;-76
2021/05/27 04:50:57;;;;;;;11.82;2.72;;;14.70;99.90;;;;;;5039303;28;20025;-76
2021/05/27 04:53:24;;;;;;;5.95;3.30;;;14.70;99.90;;;;;;5048003;28;20045;-75
2021/05/27 04:55:51;;;;;;;3.53;1.98;;;14.60;99.90;;;;;;5039477;28;20026;-76
2021/05/27 04:58:17;;;;;;;6.18;2.42;;;14.70;99.90;;;;;;5024159;28;20045;-75
2021/05/27 05:00:43;;;;;;;7.18;2.30;;;14.90;99.90;;;;;;5046685;28;20021;-76
2021/05/27 05:03:08;;;;;;;4.43;2.13;;;15.10;99.90;;;;;;5043182;28;20041;-75
2021/05/27 05:05:35;;;;;;;8.18;2.38;;;15.20;99.90;;;;;;5035212;28;20040;-76
2021/05/27 05:08:02;;;;;;;7.30;2.92;;;15.40;99.90;;;;;;5043993;28;20022;-75
2021/05/27 05:10:29;;;;;;;10.23;2.75;;;15.50;99.90;;;;;;5050384;28;20074;-75
2021/05/27 05:12:55;;;;;;;7.43;2.90;;;15.60;99.90;;;;;;5043202;28;20562;-77
2021/05/27 05:15:23;;;;;;;11.15;3.15;;;15.70;99.90;;;;;;5043264;28;20041;-76
2021/05/27 05:17:55;;;;;;;8.13;2.65;;;15.90;99.90;;;;;;5051287;28;20564;-76
2021/05/27 05:20:23;;;;;;;3.88;2.50;;;15.90;99.90;;;;;;5040481;28;20025;-76
2021/05/27 05:22:48;;;;;;;10.00;3.65;;;16.10;99.90;;;;;;5045061;28;20036;-76
2021/05/27 05:25:15;;;;;;;8.35;2.85;;;16.30;99.90;;;;;;5035949;28;20113;-76
2021/05/27 05:27:42;;;;;;;8.68;3.08;;;16.40;99.90;;;;;;5046463;28;20467;-75
2021/05/27 05:30:08;;;;;;;8.00;3.28;;;16.40;99.90;;;;;;5040106;28;20036;-76
2021/05/27 05:32:34;;;;;;;8.93;3.08;;;16.50;99.90;;;;;;5037831;28;20026;-75
2021/05/27 05:35:00;;;;;;;4.25;2.10;;;16.60;99.90;;;;;;5030136;28;20083;-76
2021/05/27 05:37:27;;;;;;;5.97;2.80;;;16.60;99.90;;;;;;5033212;28;20021;-76
2021/05/27 05:39:53;;;;;;;7.00;2.58;;;16.70;99.90;;;;;;5032015;28;20032;-76
2021/05/27 05:42:20;;;;;;;11.73;2.90;;;16.90;99.90;;;;;;5033145;28;20087;-76
2021/05/27 05:44:46;;;;;;;13.60;2.95;;;17.10;99.90;;;;;;5032205;28;20112;-76
2021/05/27 05:47:11;;;;;;;6.97;3.22;;;17.20;99.90;;;;;;5032084;28;20100;-74
2021/05/27 05:49:37;;;;;;;13.15;4.30;;;17.30;99.90;;;;;;5030910;28;20032;-75
2021/05/27 05:52:03;;;;;;;8.13;2.40;;;17.40;99.90;;;;;;5031859;28;20053;-76
2021/05/27 05:54:29;;;;;;;6.13;3.22;;;17.40;99.90;;;;;;5025121;28;20120;-76
2021/05/27 05:56:55;;;;;;;11.18;2.45;;;17.50;99.90;;;;;;5028958;28;20168;-76
2021/05/27 05:59:21;;;;;;;8.93;2.72;;;17.60;99.90;;;;;;5030404;28;20091;-75
2021/05/27 06:01:46;;;;;;;12.85;2.92;;;17.70;99.90;;;;;;5026477;28;20021;-76
2021/05/27 06:04:12;;;;;;;5.05;2.58;;;17.80;99.90;;;;;;5032298;28;20033;-75
2021/05/27 06:06:38;;;;;;;7.50;2.25;;;17.90;99.90;;;;;;5024983;28;20056;-75
2021/05/27 06:09:04;;;;;;;13.30;3.42;;;18.00;99.90;;;;;;5032146;28;20060;-75
2021/05/27 06:11:29;;;;;;;10.85;3.88;;;18.10;99.90;;;;;;5030137;28;20034;-75
2021/05/27 06:13:56;;;;;;;12.35;3.00;;;18.10;99.90;;;;;;5021957;28;20056;-75
2021/05/27 06:16:22;;;;;;;8.90;3.80;;;18.20;99.90;;;;;;5019121;28;20026;-77
2021/05/27 06:18:47;;;;;;;6.10;3.20;;;18.30;99.90;;;;;;5030305;28;20028;-76
2021/05/27 06:21:13;;;;;;;10.90;2.97;;;18.40;99.90;;;;;;5030948;28;20030;-75
2021/05/27 06:23:39;;;;;;;8.70;2.67;;;18.50;99.90;;;;;;5028016;28;20526;-75
2021/05/27 06:26:05;;;;;;;6.22;2.83;;;18.60;99.90;;;;;;5030918;28;20403;-76
2021/05/27 06:28:31;;;;;;;8.55;2.63;;;18.60;99.90;;;;;;5029403;28;20479;-74
2021/05/27 06:30:56;;;;;;;15.65;3.78;;;18.70;99.90;;;;;;5029799;28;20608;-76
2021/05/27 06:33:23;;;;;;;8.30;2.80;;;18.80;99.90;;;;;;5029401;28;20035;-74
2021/05/27 06:35:49;;;;;;;8.18;2.22;;;18.90;99.90;;;;;;5029358;28;20361;-75
2021/05/27 06:38:15;;;;;;;4.63;2.92;;;18.90;99.90;;;;;;5034121;28;20044;-74
2021/05/27 06:40:41;;;;;;;6.80;2.72;;;19.10;99.90;;;;;;5034895;28;20032;-75
2021/05/27 06:43:07;;;;;;;7.20;2.72;;;19.20;99.90;;;;;;5021758;28;20033;-75
2021/05/27 06:45:34;;;;;;;6.22;2.28;;;19.20;99.90;;;;;;5031335;28;20029;-74
2021/05/27 06:48:00;;;;;;;6.97;2.55;;;19.40;99.90;;;;;;5029299;28;20026;-74
2021/05/27 06:50:32;;;;;;;4.28;2.20;;;19.50;99.90;;;;;;5032780;28;20021;-75
2021/05/27 06:53:06;;;;;;;8.20;2.30;;;19.70;99.90;;;;;;5024980;28;20025;-73
2021/05/27 06:55:32;;;;;;;10.82;3.90;;;19.70;99.90;;;;;;5027435;28;20455;-75
2021/05/27 06:57:58;;;;;;;8.20;2.50;;;19.80;99.90;;;;;;5028749;28;20033;-76
2021/05/27 07:00:24;;;;;;;22.75;7.32;;;19.90;99.90;;;;;;5027164;28;20017;-75
2021/05/27 07:02:52;;;;;;;34.28;8.32;;;19.90;99.90;;;;;;5030272;28;20025;-75
2021/05/27 07:05:18;;;;;;;18.90;8.52;;;19.80;99.90;;;;;;5029132;28;20483;-75
2021/05/27 07:07:44;;;;;;;12.45;5.55;;;19.60;99.90;;;;;;5030181;28;20034;-76
2021/05/27 07:10:10;;;;;;;16.80;7.57;;;19.50;99.90;;;;;;5028426;28;20044;-75
2021/05/27 07:12:36;;;;;;;20.92;5.57;;;19.50;99.90;;;;;;5028660;28;20017;-75
2021/05/27 07:15:02;;;;;;;18.30;4.93;;;19.50;99.90;;;;;;5032081;28;20382;-75
2021/05/27 07:17:28;;;;;;;13.93;4.97;;;19.60;99.90;;;;;;5030483;28;20068;-74
2021/05/27 07:19:54;;;;;;;13.75;4.03;;;19.60;99.90;;;;;;5030086;28;20064;-76
2021/05/27 07:22:21;;;;;;;12.07;3.63;;;19.60;99.90;;;;;;5030870;28;20029;-76
2021/05/27 07:24:47;;;;;;;10.07;3.47;;;19.50;99.90;;;;;;5028868;28;20022;-75
2021/05/27 07:27:15;;;;;;;11.00;3.22;;;19.50;99.90;;;;;;5029580;28;20056;-75
2021/05/27 07:29:42;;;;;;;14.88;4.20;;;19.50;99.90;;;;;;5029269;28;20126;-74
2021/05/27 07:32:08;;;;;;;12.18;4.95;;;19.50;99.90;;;;;;5027566;28;20108;-74
2021/05/27 07:34:34;;;;;;;16.98;4.22;;;19.50;99.90;;;;;;5027808;28;20108;-75
2021/05/27 07:37:00;;;;;;;18.08;3.85;;;19.60;99.90;;;;;;5021709;28;20029;-75
2021/05/27 07:39:26;;;;;;;13.60;3.97;;;19.60;99.90;;;;;;5032579;28;20024;-78
2021/05/27 07:41:51;;;;;;;13.55;4.65;;;19.70;99.90;;;;;;5028343;28;20013;-76
2021/05/27 07:44:17;;;;;;;11.05;3.90;;;19.70;99.90;;;;;;5031560;28;20082;-76
2021/05/27 07:46:43;;;;;;;15.02;3.25;;;19.70;99.90;;;;;;5015107;28;20029;-73
2021/05/27 07:49:09;;;;;;;7.35;3.58;;;19.80;99.90;;;;;;5029508;28;20030;-75
2021/05/27 07:51:35;;;;;;;8.07;3.67;;;19.80;99.90;;;;;;5022534;28;20052;-74
2021/05/27 07:54:00;;;;;;;17.00;3.83;;;19.80;99.90;;;;;;5026290;28;20545;-67
2021/05/27 07:56:26;;;;;;;13.25;3.92;;;19.90;99.90;;;;;;5030246;28;20021;-68
2021/05/27 07:58:52;;;;;;;9.55;4.30;;;20.00;99.90;;;;;;5028305;28;20017;-70
2021/05/27 08:01:18;;;;;;;13.70;3.70;;;20.10;99.90;;;;;;5028092;28;20101;-71
2021/05/27 08:03:43;;;;;;;12.45;3.88;;;20.00;99.90;;;;;;5025396;28;20052;-73
2021/05/27 08:06:09;;;;;;;9.80;3.53;;;20.10;99.90;;;;;;5028427;28;20485;-73
2021/05/27 08:08:35;;;;;;;10.07;4.28;;;19.90;99.90;;;;;;5029190;28;20052;-71
2021/05/27 08:11:01;;;;;;;8.95;3.90;;;19.90;99.90;;;;;;5030094;28;20057;-73
2021/05/27 08:13:28;;;;;;;17.65;4.00;;;20.00;99.90;;;;;;5026929;28;20033;-74
2021/05/27 08:15:54;;;;;;;13.02;3.30;;;20.00;99.90;;;;;;5027719;28;20439;-72
2021/05/27 08:18:20;;;;;;;9.57;3.08;;;20.00;99.90;;;;;;5028466;28;20049;-73
2021/05/27 08:20:46;;;;;;;6.55;3.35;;;20.10;99.90;;;;;;5010791;28;20530;-71
2021/05/27 08:23:11;;;;;;;7.90;3.28;;;20.10;99.90;;;;;;5029126;28;20072;-71
2021/05/27 08:25:37;;;;;;;11.20;3.58;;;20.20;99.90;;;;;;5030270;28;20044;-71
2021/05/27 08:28:03;;;;;;;9.70;2.65;;;20.20;99.90;;;;;;5028801;28;20167;-72
2021/05/27 08:30:29;;;;;;;13.50;3.20;;;20.10;99.90;;;;;;5029254;28;20059;-72
2021/05/27 08:32:54;;;;;;;8.13;3.05;;;20.10;99.90;;;;;;5027899;28;20107;-73
2021/05/27 08:35:20;;;;;;;6.28;3.28;;;20.10;99.90;;;;;;5036296;28;20430;-71
2021/05/27 08:37:47;;;;;;;6.57;3.20;;;20.10;99.90;;;;;;5018425;28;20537;-73
2021/05/27 08:40:13;;;;;;;10.73;3.38;;;20.20;99.90;;;;;;5039965;28;20017;-72
2021/05/27 08:42:42;;;;;;;11.38;3.25;;;20.30;99.90;;;;;;5045878;28;20036;-72
2021/05/27 08:45:09;;;;;;;10.68;3.40;;;20.30;99.90;;;;;;5043686;28;20028;-72
2021/05/27 08:47:35;;;;;;;8.02;2.60;;;20.30;99.90;;;;;;5027405;28;20033;-72
2021/05/27 08:50:04;;;;;;;11.00;2.85;;;20.40;99.90;;;;;;5034208;28;20024;-70
2021/05/27 08:52:30;;;;;;;10.73;3.25;;;20.40;99.90;;;;;;5043234;28;20021;-73
2021/05/27 08:54:56;;;;;;;10.07;4.30;;;20.40;99.90;;;;;;5032504;28;20475;-71
2021/05/27 08:57:22;;;;;;;8.20;2.97;;;20.30;99.90;;;;;;5046208;28;20024;-70
2021/05/27 08:59:48;;;;;;;8.32;3.17;;;20.30;99.90;;;;;;5035649;28;20024;-70
2021/05/27 09:02:13;;;;;;;5.20;2.63;;;20.40;99.90;;;;;;5027082;28;20104;-72
2021/05/27 09:04:40;;;;;;;7.03;2.72;;;20.60;99.90;;;;;;5031703;28;20375;-73
2021/05/27 09:07:06;;;;;;;7.07;2.47;;;20.60;99.90;;;;;;5040406;28;20037;-71
2021/05/27 09:09:51;;;;;;;10.18;4.63;;;20.70;99.90;;;;;;5035073;28;20429;-72
2021/05/27 09:12:29;;;;;;;4.97;2.38;;;20.70;99.90;;;;;;5044330;28;20055;-72
2021/05/27 09:14:56;;;;;;;4.32;2.50;;;20.70;99.90;;;;;;5038315;28;20029;-70
2021/05/27 09:17:22;;;;;;;7.22;2.92;;;20.70;99.90;;;;;;5040498;28;20021;-71
2021/05/27 09:20:15;;;;;;;14.82;3.95;;;20.80;99.90;;;;;;5031649;28;20471;-73
2021/05/27 09:22:42;;;;;;;8.48;3.15;;;20.90;99.90;;;;;;5023634;28;20025;-71
2021/05/27 09:25:26;;;;;;;12.65;3.47;;;20.90;99.90;;;;;;5031152;28;20022;-71
2021/05/27 09:27:52;;;;;;;10.05;3.72;;;21.10;99.90;;;;;;5041315;28;20493;-72
2021/05/27 09:30:19;;;;;;;5.72;3.30;;;21.10;99.90;;;;;;5038953;28;20526;-72
2021/05/27 09:32:47;;;;;;;10.32;2.80;;;21.30;99.90;;;;;;5032800;28;20435;-71
2021/05/27 09:35:14;;;;;;;9.93;2.83;;;21.40;99.90;;;;;;5005263;28;20114;-70
2021/05/27 09:37:56;;;;;;;6.93;2.80;;;21.40;99.90;;;;;;5011524;28;20075;-71
2021/05/27 09:40:31;;;;;;;7.95;3.40;;;21.50;99.90;;;;;;5010575;28;20029;-71
2021/05/27 09:42:59;;;;;;;8.60;3.22;;;21.50;99.90;;;;;;5011605;28;20026;-71
2021/05/27 09:45:29;;;;;;;11.55;2.67;;;21.50;99.90;;;;;;5011143;28;20037;-70
2021/05/27 09:47:55;;;;;;;7.70;2.45;;;21.40;99.90;;;;;;5011966;28;20032;-71
2021/05/27 09:50:31;;;;;;;10.10;2.38;;;21.30;99.90;;;;;;5009370;28;20022;-71
2021/05/27 09:53:12;;;;;;;8.73;2.10;;;21.40;99.90;;;;;;5010756;28;20107;-71
2021/05/27 09:55:39;;;;;;;8.55;2.38;;;21.60;99.90;;;;;;5010373;28;20026;-69
2021/05/27 09:58:12;;;;;;;7.97;2.75;;;21.60;99.90;;;;;;5011294;28;20032;-70
2021/05/27 10:00:40;;;;;;;5.72;2.70;;;21.50;99.90;;;;;;4988113;28;20037;-71
2021/05/27 10:03:32;;;;;;;6.20;1.95;;;21.40;99.90;;;;;;5010788;28;20033;-70
2021/05/27 10:06:15;;;;;;;10.57;2.33;;;21.40;99.90;;;;;;5009956;28;20360;-72
2021/05/27 10:08:55;;;;;;;5.85;2.03;;;21.30;99.90;;;;;;5009969;28;20022;-72
2021/05/27 10:11:23;;;;;;;5.47;1.98;;;21.10;99.90;;;;;;5011633;28;20026;-72
2021/05/27 10:13:50;;;;;;;4.93;2.00;;;21.20;99.90;;;;;;5010434;28;20446;-72
2021/05/27 10:16:21;;;;;;;12.48;2.65;;;21.20;99.90;;;;;;5010056;28;20033;-71
2021/05/27 10:18:51;;;;;;;10.75;2.72;;;21.10;99.90;;;;;;5010257;28;20090;-73
2021/05/27 10:21:17;;;;;;;7.82;2.83;;;21.10;99.90;;;;;;5010155;28;20022;-72
2021/05/27 10:23:44;;;;;;;6.55;2.80;;;21.10;99.90;;;;;;5011346;28;20022;-70
2021/05/27 10:26:09;;;;;;;6.70;2.72;;;21.00;99.90;;;;;;5011172;28;20021;-72
2021/05/27 10:28:37;;;;;;;4.85;2.17;;;21.00;99.90;;;;;;5009499;28;20044;-71
2021/05/27 10:31:04;;;;;;;6.57;2.70;;;21.00;99.90;;;;;;5010975;28;20515;-71
2021/05/27 10:33:41;;;;;;;9.07;2.85;;;21.00;99.90;;;;;;5008042;28;20021;-71
2021/05/27 10:36:08;;;;;;;8.75;3.03;;;21.00;99.90;;;;;;5030610;28;20025;-71
2021/05/27 10:38:40;;;;;;;6.32;2.00;;;20.90;99.90;;;;;;5030119;28;20017;-71
2021/05/27 10:41:09;;;;;;;6.78;2.38;;;20.90;99.90;;;;;;5030446;28;20169;-72
2021/05/27 10:43:36;;;;;;;17.13;3.00;;;20.90;99.90;;;;;;5014353;28;20025;-71
2021/05/27 10:46:04;;;;;;;7.55;2.10;;;21.10;99.90;;;;;;5028952;28;20114;-72
2021/05/27 10:48:41;;;;;;;10.25;3.25;;;21.30;99.90;;;;;;5031515;28;20029;-72
2021/05/27 10:51:22;;;;;;;14.13;2.88;;;21.30;99.90;;;;;;5031032;28;20438;-71
2021/05/27 10:53:50;;;;;;;7.60;1.87;;;21.20;99.90;;;;;;5028406;28;20032;-71
2021/05/27 10:56:46;;;;;;;9.02;2.13;;;21.30;99.90;;;;;;5028674;28;21008;-69
2021/05/27 10:59:17;;;;;;;7.53;2.10;;;21.20;99.90;;;;;;5030381;28;20025;-69
2021/05/27 11:01:43;;;;;;;11.18;3.22;;;21.20;99.90;;;;;;5027373;28;20017;-71
2021/05/27 11:04:21;;;;;;;6.70;2.95;;;21.20;99.90;;;;;;5025637;28;20164;-73
2021/05/27 11:06:49;;;;;;;6.70;2.53;;;21.30;99.90;;;;;;5027745;28;20236;-70
2021/05/27 11:09:20;;;;;;;5.22;2.20;;;21.30;99.90;;;;;;5030470;28;20443;-72
2021/05/27 11:11:48;;;;;;;8.97;2.63;;;21.20;99.90;;;;;;5029623;28;20029;-70
2021/05/27 11:14:16;;;;;;;7.82;2.72;;;21.20;99.90;;;;;;5029937;28;20294;-70
2021/05/27 11:25:16;;;;;;;7.25;2.33;;;21.40;99.90;;;;;;5030106;28;20025;-72
2021/05/27 11:27:53;;;;;;;7.15;2.03;;;21.50;99.90;;;;;;5027446;28;20025;-71
2021/05/27 11:30:37;;;;;;;6.95;3.15;;;21.70;99.90;;;;;;5031129;28;20021;-72
2021/05/27 11:33:31;;;;;;;11.45;3.35;;;21.80;99.90;;;;;;5032412;28;20585;-72
2021/05/27 11:36:17;;;;;;;7.28;3.60;;;21.90;99.90;;;;;;5010964;28;20105;-73
2021/05/27 11:38:43;;;;;;;5.07;2.35;;;21.80;99.90;;;;;;5003938;28;20030;-70
2021/05/27 11:41:18;;;;;;;7.50;2.75;;;21.80;99.90;;;;;;5010553;28;20029;-70
2021/05/27 11:43:46;;;;;;;12.00;2.88;;;21.80;99.90;;;;;;5010392;28;20032;-72
2021/05/27 11:46:29;;;;;;;5.20;3.35;;;21.90;99.90;;;;;;4996051;28;20042;-71
2021/05/27 11:48:57;;;;;;;11.73;2.75;;;22.10;99.90;;;;;;5010084;28;20033;-72
2021/05/27 11:51:38;;;;;;;7.57;2.67;;;22.10;99.90;;;;;;5001115;28;20152;-72
2021/05/27 11:54:10;;;;;;;5.78;3.30;;;22.10;99.90;;;;;;5009941;28;20033;-71
2021/05/27 11:56:43;;;;;;;12.40;4.07;;;22.10;99.90;;;;;;5005427;28;20480;-72
2021/05/27 11:59:19;;;;;;;11.07;3.53;;;22.10;99.90;;;;;;5009158;28;20022;-70
2021/05/27 12:02:00;;;;;;;6.82;3.10;;;22.20;99.90;;;;;;5004639;28;20095;-71
2021/05/27 12:04:31;;;;;;;10.70;4.30;;;22.30;99.90;;;;;;5009407;28;20088;-70
2021/05/27 12:07:04;;;;;;;6.47;2.80;;;22.50;99.90;;;;;;5010683;28;20088;-72
2021/05/27 12:09:36;;;;;;;12.02;3.63;;;22.50;99.90;;;;;;5005240;28;20040;-72
2021/05/27 12:12:24;;;;;;;11.43;4.22;;;22.50;99.90;;;;;;5009772;28;20109;-70
2021/05/27 12:14:56;;;;;;;5.95;3.33;;;22.50;99.90;;;;;;5010821;28;20511;-73
2021/05/27 12:17:26;;;;;;;8.40;4.25;;;22.50;99.90;;;;;;5014273;28;20021;-70
2021/05/27 12:19:54;;;;;;;9.70;3.75;;;22.40;99.90;;;;;;5007063;28;20041;-70
2021/05/27 12:22:21;;;;;;;5.32;3.28;;;22.30;99.90;;;;;;5014407;28;20046;-71
2021/05/27 12:25:05;;;;;;;7.93;2.92;;;22.20;99.90;;;;;;5013313;28;20022;-72
2021/05/27 12:27:39;;;;;;;9.70;3.10;;;22.20;99.90;;;;;;5012641;28;20030;-73
2021/05/27 12:30:05;;;;;;;10.45;4.07;;;22.20;99.90;;;;;;5014647;28;20315;-71
2021/05/27 12:32:31;;;;;;;10.27;3.47;;;22.30;99.90;;;;;;5013172;28;20547;-73
2021/05/27 12:34:57;;;;;;;5.45;3.60;;;22.40;99.90;;;;;;5033857;28;20108;-72
2021/05/27 12:37:37;;;;;;;7.25;2.50;;;22.40;99.90;;;;;;5035312;28;20017;-72
2021/05/27 12:40:05;;;;;;;12.23;3.00;;;22.40;99.90;;;;;;5041592;28;20030;-72
2021/05/27 12:42:35;;;;;;;7.22;2.88;;;22.60;99.90;;;;;;5047080;28;20014;-71
2021/05/27 12:45:02;;;;;;;12.75;3.25;;;22.40;99.90;;;;;;5040083;28;20039;-73
2021/05/27 12:47:27;;;;;;;10.07;3.13;;;22.30;99.90;;;;;;5034343;28;20029;-74
2021/05/27 12:49:53;;;;;;;6.30;2.30;;;22.20;99.90;;;;;;5034800;28;20037;-73
2021/05/27 12:52:51;;;;;;;5.35;2.47;;;22.10;99.90;;;;;;5042957;28;20052;-72
2021/05/27 12:55:17;;;;;;;7.60;3.47;;;22.20;99.90;;;;;;5001118;28;20120;-70
2021/05/27 12:57:53;;;;;;;6.97;3.10;;;22.30;99.90;;;;;;5039253;28;20093;-70
2021/05/27 13:00:21;;;;;;;7.97;2.95;;;22.20;99.90;;;;;;5023708;28;20024;-72
2021/05/27 13:03:06;;;;;;;10.25;2.75;;;22.40;99.90;;;;;;5042832;28;20025;-72
2021/05/27 13:05:33;;;;;;;7.15;2.58;;;22.40;99.90;;;;;;5045555;28;20044;-74
2021/05/27 13:08:03;;;;;;;7.13;2.97;;;22.60;99.90;;;;;;5037914;28;20387;-73
2021/05/27 13:10:34;;;;;;;9.88;4.00;;;22.80;99.90;;;;;;5041858;28;20021;-73